Time;durP1;ratioP1;P1;durP2;ratioP2;P2;SDS_P1;SDS_P2;PMS_P1;PMS_P2;Temp;Humidity;BMP_temperature;BMP_pressure;BME280_temperature;BME280_humidity;BME280_pressure;Samples;Min_cycle;Max_cycle;Signal;HPM_P1;HPM_P2
2022/11/18 00:01:05;;;;;;;76.30;28.90;;;;;;;9.94;89.39;98681.72;3134828;28;20057;-74
2022/11/18 00:02:37;;;;;;;51.15;27.65;;;;;;;9.94;89.57;98684.31;3134731;28;20142;-76
2022/11/18 00:04:09;;;;;;;64.60;29.17;;;;;;;9.96;89.33;98680.69;3139614;28;20119;-76
2022/11/18 00:05:40;;;;;;;70.47;28.95;;;;;;;9.96;89.63;98685.88;3144156;28;20476;-74
2022/11/18 00:07:13;;;;;;;73.93;29.23;;;;;;;9.99;89.38;98682.25;3143943;28;20135;-74
2022/11/18 00:08:45;;;;;;;57.15;29.55;;;;;;;9.99;89.68;98684.88;3144166;28;20049;-74
2022/11/18 00:10:17;;;;;;;77.10;28.30;;;;;;;9.98;89.55;98673.63;3144119;28;20052;-74
2022/11/18 00:15:28;;;;;;;65.97;29.33;;;;;;;9.88;89.89;98675.13;3144317;28;20052;-74
2022/11/18 00:17:01;;;;;;;44.90;26.00;;;;;;;9.93;89.70;98680.03;3144136;28;20083;-74
2022/11/18 00:18:32;;;;;;;;;;;;;;;9.87;89.74;98683.84;3144660;28;20063;-75
2022/11/18 00:20:04;;;;;;;57.20;26.38;;;;;;;9.88;90.10;98685.53;3144171;28;19942;-75
2022/11/18 00:21:35;;;;;;;61.63;26.80;;;;;;;9.91;89.88;98681.88;3144245;28;20053;-76
2022/11/18 00:23:08;;;;;;;61.67;26.20;;;;;;;9.89;89.65;98686.34;3144493;28;20048;-75
2022/11/18 00:24:40;;;;;;;52.63;27.73;;;;;;;9.84;90.10;98686.63;3144157;28;20102;-75
2022/11/18 00:26:14;;;;;;;56.30;27.10;;;;;;;9.87;89.77;98690.81;3144076;28;20110;-74
2022/11/18 00:27:46;;;;;;;57.85;26.98;;;;;;;9.83;90.24;98679.75;3144421;28;20440;-75
2022/11/18 00:29:18;;;;;;;63.25;28.20;;;;;;;9.61;89.92;98648.16;3144031;28;20437;-75
2022/11/18 00:30:50;;;;;;;56.80;27.30;;;;;;;9.84;90.18;98684.03;3143905;28;20067;-74
2022/11/18 00:32:22;;;;;;;51.20;26.27;;;;;;;9.81;90.27;98676.41;3144191;28;20065;-75
2022/11/18 00:33:53;;;;;;;57.03;26.73;;;;;;;9.83;89.86;98686.72;3136740;28;20052;-73
2022/11/18 00:35:25;;;;;;;44.47;25.75;;;;;;;9.83;89.84;98678.94;3144101;28;20056;-75
2022/11/18 00:36:56;;;;;;;47.58;26.10;;;;;;;9.85;90.28;98684.84;3143900;28;20142;-74
2022/11/18 00:38:29;;;;;;;58.80;24.52;;;;;;;9.83;89.81;98686.72;3144972;28;20143;-75
2022/11/18 00:40:01;;;;;;;55.45;23.23;;;;;;;9.77;89.88;98690.53;3146378;28;20127;-73
2022/11/18 00:43:19;;;;;;;39.97;23.92;;;;;;;9.68;90.34;98680.69;3145897;28;20045;-75
2022/11/18 00:44:49;;;;;;;44.03;23.40;;;;;;;9.69;90.22;98682.34;3146462;28;20110;-74
2022/11/18 00:46:21;;;;;;;42.25;24.95;;;;;;;9.67;90.24;98684.19;3146272;28;20048;-74
2022/11/18 00:47:52;;;;;;;45.13;24.75;;;;;;;9.66;90.39;98687.72;3146151;28;20117;-74
2022/11/18 00:49:24;;;;;;;59.80;25.27;;;;;;;9.64;90.09;98690.41;3146254;28;20053;-74
2022/11/18 00:50:58;;;;;;;43.67;26.38;;;;;;;9.44;90.17;98652.59;3146261;28;20048;-74
2022/11/18 00:52:29;;;;;;;46.63;24.92;;;;;;;9.62;90.39;98689.69;3133893;28;20121;-73
2022/11/18 00:54:02;;;;;;;53.50;26.33;;;;;;;9.55;90.18;98675.34;3144759;28;20036;-74
2022/11/18 00:55:34;;;;;;;50.85;25.90;;;;;;;9.59;90.58;98678.63;3146281;28;20445;-74
2022/11/18 00:57:06;;;;;;;57.08;25.30;;;;;;;9.59;90.33;98678.63;3146116;28;20044;-75
2022/11/18 00:58:38;;;;;;;49.60;25.42;;;;;;;9.59;90.15;98682.06;3146170;28;20045;-74
2022/11/18 01:00:13;;;;;;;60.58;25.33;;;;;;;9.58;90.38;98682.97;3143021;28;20056;-75
2022/11/18 01:01:45;;;;;;;46.30;25.17;;;;;;;9.54;90.35;98681.47;3146125;28;20102;-75
2022/11/18 01:03:17;;;;;;;57.85;25.52;;;;;;;9.54;90.13;98689.28;3146077;28;20429;-75
2022/11/18 01:04:49;;;;;;;66.30;25.33;;;;;;;9.55;90.25;98698.75;3146137;28;20515;-75
2022/11/18 01:06:21;;;;;;;58.00;24.42;;;;;;;9.52;90.65;98704.13;3145743;28;20048;-75
2022/11/18 01:07:53;;;;;;;60.28;27.05;;;;;;;9.49;90.31;98699.09;3145889;28;20127;-74
2022/11/18 01:09:26;;;;;;;65.05;26.27;;;;;;;9.50;90.43;98700.78;3146251;28;20056;-75
2022/11/18 01:13:18;;;;;;;57.13;25.55;;;;;;;9.49;90.65;98705.13;3145887;28;20048;-75
2022/11/18 01:14:39;;;;;;;61.08;23.60;;;;;;;9.45;91.08;98692.41;3144062;28;20040;-74
2022/11/18 01:16:11;;;;;;;58.70;25.02;;;;;;;9.44;91.16;98699.38;3146070;28;20166;-75
2022/11/18 01:17:43;;;;;;;64.28;24.58;;;;;;;9.39;90.89;98682.38;3146046;28;20097;-74
2022/11/18 01:19:14;;;;;;;61.05;25.88;;;;;;;9.39;90.84;98685.81;3145803;28;20662;-75
2022/11/18 01:20:46;;;;;;;48.40;24.73;;;;;;;9.43;91.11;98691.66;3145886;28;20055;-75
2022/11/18 01:22:18;;;;;;;62.63;24.00;;;;;;;9.43;91.16;98682.09;3145638;28;20441;-75
2022/11/18 01:23:50;;;;;;;46.97;23.45;;;;;;;9.44;91.35;98680.38;3145913;28;20063;-74
2022/11/18 01:25:23;;;;;;;51.75;23.85;;;;;;;9.45;91.17;98685.47;3145665;28;20553;-74
2022/11/18 01:26:54;;;;;;;56.63;24.55;;;;;;;9.47;91.13;98682.78;3145792;28;20143;-75
2022/11/18 01:28:26;;;;;;;69.20;25.05;;;;;;;9.46;91.31;98673.28;3145827;28;20110;-74
2022/11/18 01:29:58;;;;;;;52.08;23.75;;;;;;;9.46;91.05;98675.91;3145847;28;20111;-75
2022/11/18 01:31:30;;;;;;;50.38;24.17;;;;;;;9.46;91.49;98681.09;3145865;28;20061;-75
2022/11/18 01:33:02;;;;;;;72.70;23.65;;;;;;;9.48;91.26;98681.84;3145564;28;20104;-74
2022/11/18 01:34:34;;;;;;;74.78;23.55;;;;;;;9.49;91.43;98680.91;3145793;28;20087;-74
2022/11/18 01:36:15;;;;;;;50.40;23.05;;;;;;;9.49;91.07;98679.16;3145503;28;20048;-69
2022/11/18 01:37:47;;;;;;;56.53;21.55;;;;;;;9.49;91.30;98673.13;3145711;28;20185;-75
2022/11/18 01:39:19;;;;;;;61.83;25.05;;;;;;;9.49;91.52;98673.94;3145574;28;20114;-74
2022/11/18 01:40:52;;;;;;;58.08;23.02;;;;;;;9.50;91.23;98673.03;3145306;28;20192;-75
2022/11/18 01:42:24;;;;;;;81.95;22.95;;;;;;;9.50;91.21;98672.22;3145628;28;20571;-74
2022/11/18 01:43:59;;;;;;;72.13;23.02;;;;;;;9.50;91.35;98678.22;3140272;28;20071;-74
2022/11/18 01:45:34;;;;;;;57.92;22.77;;;;;;;9.52;91.52;98675.53;3136762;28;20535;-73
2022/11/18 01:47:05;;;;;;;47.15;22.52;;;;;;;9.54;91.27;98676.28;3136916;28;20059;-74
2022/11/18 01:48:38;;;;;;;82.18;22.95;;;;;;;9.56;91.42;98680.47;3136202;28;20549;-74
2022/11/18 01:50:09;;;;;;;63.42;23.52;;;;;;;9.56;91.20;98679.66;3135125;28;20559;-74
2022/11/18 01:51:48;;;;;;;56.05;22.38;;;;;;;9.59;91.33;98674.25;3136389;28;20158;-73
2022/11/18 01:53:24;;;;;;;98.82;26.23;;;;;;;9.62;91.51;98681.03;3136619;28;20158;-75
2022/11/18 01:55:00;;;;;;;69.50;25.83;;;;;;;9.63;91.06;98675.75;3136853;28;20383;-74
2022/11/18 01:56:40;;;;;;;97.10;24.23;;;;;;;9.64;91.11;98673.97;3135734;28;20056;-73
2022/11/18 01:58:17;;;;;;;66.30;23.25;;;;;;;9.62;91.65;98678.44;3136235;28;20048;-72
2022/11/18 01:59:54;;;;;;;55.90;22.17;;;;;;;9.62;91.25;98681.88;3136372;28;20044;-72
2022/11/18 02:01:26;;;;;;;60.17;23.20;;;;;;;9.62;91.29;98675.84;3136111;28;20086;-72
2022/11/18 02:03:01;;;;;;;50.92;22.30;;;;;;;9.64;91.23;98671.38;3135326;28;20060;-71
2022/11/18 02:04:33;;;;;;;55.17;22.73;;;;;;;9.66;91.55;98669.53;3136575;28;20143;-73
2022/11/18 02:06:07;;;;;;;56.20;22.70;;;;;;;9.67;91.18;98666.00;3123179;28;20517;-74
2022/11/18 02:07:42;;;;;;;63.78;22.65;;;;;;;9.66;91.15;98672.97;3135648;28;20366;-73
2022/11/18 02:09:16;;;;;;;49.38;21.77;;;;;;;9.63;91.33;98661.91;3136211;28;20135;-73
2022/11/18 02:10:48;;;;;;;55.10;23.42;;;;;;;9.66;91.42;98669.53;3135479;28;20056;-72
2022/11/18 02:12:22;;;;;;;66.90;22.77;;;;;;;9.68;91.61;98678.91;3135965;28;20055;-75
2022/11/18 02:13:54;;;;;;;67.35;22.95;;;;;;;9.66;91.64;98675.56;3136598;28;20477;-73
2022/11/18 02:15:46;;;;;;;91.75;21.73;;;;;;;9.48;91.25;98646.28;3134978;28;20071;-72
2022/11/18 02:17:30;;;;;;;93.22;20.92;;;;;;;9.60;91.57;98669.91;3135135;28;20163;-75
2022/11/18 02:19:11;;;;;;;64.10;21.58;;;;;;;9.59;91.63;98676.03;3134963;28;20134;-74
2022/11/18 02:20:46;;;;;;;59.45;22.63;;;;;;;9.59;91.67;98673.44;3135385;28;20326;-74
2022/11/18 02:22:33;;;;;;;71.78;22.65;;;;;;;9.56;91.64;98675.28;3135683;28;20052;-75
2022/11/18 02:24:27;;;;;;;67.00;21.58;;;;;;;9.54;91.94;98684.91;3135645;28;20081;-75
2022/11/18 02:26:51;;;;;;;69.97;22.75;;;;;;;9.45;91.55;98677.66;3134801;28;20085;-76
2022/11/18 02:28:35;;;;;;;51.83;21.88;;;;;;;9.47;91.73;98675.00;3122938;28;20224;-76
2022/11/18 02:30:09;;;;;;;82.68;22.65;;;;;;;9.48;91.88;98672.28;3136002;28;20089;-76
2022/11/18 02:31:48;;;;;;;89.15;22.25;;;;;;;9.48;91.99;98677.47;3135405;28;20537;-76
2022/11/18 02:33:26;;;;;;;79.00;22.23;;;;;;;9.50;92.09;98665.25;3130683;28;20574;-77
2022/11/18 02:35:06;;;;;;;47.58;24.08;;;;;;;9.52;91.96;98663.41;3135260;28;20052;-75
2022/11/18 02:36:46;;;;;;;68.47;21.85;;;;;;;9.54;91.70;98658.09;3135958;28;20432;-76
2022/11/18 02:38:27;;;;;;;88.75;19.90;;;;;;;9.55;91.92;98668.41;3136017;28;20426;-75
2022/11/18 02:40:02;;;;;;;56.63;20.42;;;;;;;9.48;91.53;98650.66;3135603;28;20048;-76
2022/11/18 02:41:39;;;;;;;59.97;20.40;;;;;;;9.57;91.12;98665.72;3135015;28;20661;-75
2022/11/18 02:43:17;;;;;;;63.72;21.98;;;;;;;9.55;90.92;98665.81;3135230;28;20098;-75
2022/11/18 02:44:52;;;;;;;74.47;20.98;;;;;;;9.33;91.21;98631.63;3135605;28;20041;-76
2022/11/18 02:46:31;;;;;;;55.20;20.48;;;;;;;9.54;90.81;98663.28;3135694;28;20269;-76
2022/11/18 02:48:08;;;;;;;67.00;21.27;;;;;;;9.51;91.04;98661.72;3135565;28;20048;-77
2022/11/18 02:49:45;;;;;;;53.03;21.88;;;;;;;9.52;90.65;98665.13;3134960;28;20048;-76
2022/11/18 02:51:23;;;;;;;62.25;22.27;;;;;;;9.47;90.86;98652.44;3135678;28;20060;-76
2022/11/18 02:52:59;;;;;;;64.68;22.52;;;;;;;9.48;90.54;98648.06;3136188;28;20421;-76
2022/11/18 02:54:32;;;;;;;72.75;21.20;;;;;;;9.49;90.49;98658.34;3135344;28;20853;-75
2022/11/18 02:56:06;;;;;;;79.55;23.35;;;;;;;9.44;90.39;98654.38;3134658;28;20060;-75
2022/11/18 02:57:40;;;;;;;75.80;21.98;;;;;;;9.41;90.44;98655.41;3135771;28;20051;-76
2022/11/18 02:59:12;;;;;;;73.28;21.73;;;;;;;9.41;90.46;98655.41;3134880;28;20056;-76
2022/11/18 03:00:45;;;;;;;70.32;22.33;;;;;;;9.39;90.58;98657.22;3135189;28;20052;-76
2022/11/18 03:02:22;;;;;;;50.90;21.70;;;;;;;9.37;90.60;98660.84;3135473;28;20103;-76
2022/11/18 03:03:54;;;;;;;74.60;23.55;;;;;;;9.37;90.66;98664.28;3135610;28;20367;-76
2022/11/18 03:05:36;;;;;;;65.28;22.48;;;;;;;9.37;90.60;98673.84;3135713;28;20056;-77
2022/11/18 03:07:15;;;;;;;61.63;23.05;;;;;;;9.34;90.72;98664.44;3135042;28;20062;-76
2022/11/18 03:08:52;;;;;;;58.35;20.90;;;;;;;9.32;90.34;98661.13;3134488;28;20540;-76
2022/11/18 03:10:28;;;;;;;48.33;19.45;;;;;;;9.29;90.30;98671.69;3133122;28;20228;-76
2022/11/18 03:12:10;;;;;;;54.90;20.65;;;;;;;9.26;90.04;98671.88;3135400;28;20053;-76
2022/11/18 03:13:51;;;;;;;68.60;20.73;;;;;;;9.21;90.13;98666.09;3135840;28;20048;-76
2022/11/18 03:15:34;;;;;;;64.43;19.85;;;;;;;9.17;90.15;98664.59;3135055;28;20940;-76
2022/11/18 03:17:13;;;;;;;58.97;20.75;;;;;;;9.12;90.20;98675.25;3136077;28;20501;-76
2022/11/18 03:18:55;;;;;;;53.50;20.38;;;;;;;9.05;90.24;98672.19;3135777;28;20573;-76
2022/11/18 03:20:31;;;;;;;37.20;20.08;;;;;;;9.01;90.13;98669.84;3135905;28;20113;-77
2022/11/18 03:22:11;;;;;;;66.28;20.80;;;;;;;8.97;90.50;98670.94;3134199;28;20439;-76
2022/11/18 03:23:48;;;;;;;60.28;22.23;;;;;;;8.94;90.62;98671.13;3126045;28;20075;-76
2022/11/18 03:25:28;;;;;;;52.70;22.27;;;;;;;8.92;90.54;98663.41;3132645;28;20086;-78
2022/11/18 03:27:06;;;;;;;60.90;22.35;;;;;;;8.91;91.01;98663.50;3124554;28;20048;-75
2022/11/18 03:28:44;;;;;;;63.30;22.77;;;;;;;8.89;90.81;98661.81;3131020;28;20059;-74
2022/11/18 03:30:20;;;;;;;47.80;22.60;;;;;;;8.87;90.59;98660.22;3135035;28;20056;-73
2022/11/18 03:31:59;;;;;;;45.78;21.83;;;;;;;8.85;90.88;98672.47;3135625;28;20067;-73
2022/11/18 03:33:37;;;;;;;43.63;21.70;;;;;;;8.82;90.81;98670.88;3135382;28;20078;-73
2022/11/18 03:35:14;;;;;;;41.72;21.08;;;;;;;8.80;90.45;98675.31;3134244;28;20060;-75
2022/11/18 03:36:50;;;;;;;40.47;22.10;;;;;;;8.79;89.80;98678.00;3130915;28;20048;-74
2022/11/18 03:38:26;;;;;;;40.92;21.17;;;;;;;8.78;89.80;98681.50;3135204;28;20109;-74
2022/11/18 03:40:04;;;;;;;49.60;21.23;;;;;;;8.75;89.90;98674.72;3135564;28;20444;-73
2022/11/18 03:41:40;;;;;;;49.00;21.42;;;;;;;8.78;89.86;98677.13;3134596;28;20066;-73
2022/11/18 03:43:17;;;;;;;38.53;20.73;;;;;;;8.79;89.94;98681.44;3135332;28;20556;-74
2022/11/18 03:44:54;;;;;;;40.80;21.20;;;;;;;8.81;89.71;98683.94;3135397;28;20059;-75
2022/11/18 03:46:34;;;;;;;40.88;21.13;;;;;;;8.79;89.62;98670.22;3133999;28;20048;-73
2022/11/18 03:48:12;;;;;;;53.40;21.02;;;;;;;8.85;89.94;98694.06;3134122;28;20297;-74
2022/11/18 03:49:49;;;;;;;41.58;20.90;;;;;;;8.86;89.81;98695.72;3138003;28;20085;-75
2022/11/18 03:51:26;;;;;;;41.58;21.00;;;;;;;8.87;89.86;98707.81;3134688;28;20048;-73
2022/11/18 03:53:00;;;;;;;84.68;22.73;;;;;;;8.86;90.17;98703.53;3134066;28;20196;-74
2022/11/18 03:54:34;;;;;;;63.95;21.33;;;;;;;8.88;90.18;98708.63;3133968;28;20052;-75
2022/11/18 03:56:10;;;;;;;104.90;21.45;;;;;;;8.88;89.95;98708.63;3134381;28;20049;-75
2022/11/18 03:57:46;;;;;;;82.47;22.13;;;;;;;8.87;90.46;98714.72;3134344;28;20106;-75
2022/11/18 03:59:24;;;;;;;54.90;21.63;;;;;;;8.85;90.15;98714.84;3121990;28;20048;-74
2022/11/18 04:01:03;;;;;;;47.50;22.63;;;;;;;8.84;90.42;98713.16;3133813;28;20049;-74
2022/11/18 04:02:36;;;;;;;52.35;22.60;;;;;;;8.83;90.27;98714.06;3134337;28;20846;-73
2022/11/18 04:04:08;;;;;;;54.22;23.95;;;;;;;8.82;90.26;98709.81;3134804;28;20048;-74
2022/11/18 04:05:43;;;;;;;57.22;24.20;;;;;;;8.83;90.58;98701.09;3135475;28;20085;-73
2022/11/18 04:07:22;;;;;;;54.88;23.48;;;;;;;8.85;90.43;98704.44;3134695;28;20126;-74
2022/11/18 04:08:59;;;;;;;74.82;26.67;;;;;;;8.87;90.44;98712.13;3134229;28;20056;-74
2022/11/18 04:10:37;;;;;;;56.53;21.77;;;;;;;8.85;90.63;98701.03;3135265;28;20063;-75
2022/11/18 04:12:12;;;;;;;59.17;22.77;;;;;;;8.92;90.63;98704.94;3134826;28;20064;-73
2022/11/18 04:13:44;;;;;;;56.15;24.05;;;;;;;8.95;90.65;98712.56;3138086;28;20131;-75
2022/11/18 04:15:17;;;;;;;56.80;24.20;;;;;;;8.97;90.57;98717.69;3137866;28;20344;-74
2022/11/18 04:16:51;;;;;;;56.97;23.20;;;;;;;8.88;90.97;98704.28;3137358;28;20155;-75
2022/11/18 04:18:23;;;;;;;61.00;24.23;;;;;;;8.99;90.93;98721.00;3136994;28;20055;-74
2022/11/18 04:19:55;;;;;;;62.47;22.92;;;;;;;9.01;90.64;98724.38;3137749;28;20418;-73
2022/11/18 04:21:26;;;;;;;70.57;23.38;;;;;;;9.02;90.70;98723.44;3137305;28;20052;-74
2022/11/18 04:22:59;;;;;;;92.20;25.20;;;;;;;9.02;90.73;98721.69;3136509;28;20269;-73
2022/11/18 04:24:32;;;;;;;78.75;26.35;;;;;;;8.69;90.97;98669.03;3136690;28;20049;-75
2022/11/18 04:26:03;;;;;;;78.15;25.88;;;;;;;9.07;90.89;98724.03;3136224;28;20581;-73
2022/11/18 04:27:35;;;;;;;80.68;25.30;;;;;;;9.11;91.07;98721.19;3136275;28;20067;-74
2022/11/18 04:29:06;;;;;;;81.40;25.60;;;;;;;8.96;91.21;98696.06;3136090;28;20159;-74
2022/11/18 04:30:38;;;;;;;79.20;24.38;;;;;;;9.15;91.58;98727.03;3136247;28;20048;-75
2022/11/18 04:32:09;;;;;;;93.43;25.45;;;;;;;9.16;91.66;98718.31;3136063;28;20060;-74
2022/11/18 04:33:41;;;;;;;93.13;25.52;;;;;;;9.18;91.45;98721.66;3136102;28;20121;-74
2022/11/18 04:35:13;;;;;;;67.55;28.75;;;;;;;9.18;91.55;98721.66;3136116;28;20416;-74
2022/11/18 04:36:45;;;;;;;67.00;29.42;;;;;;;9.16;91.64;98720.06;3136710;28;20253;-74
2022/11/18 04:38:18;;;;;;;65.80;29.20;;;;;;;9.15;91.32;98729.63;3136321;28;20132;-74
2022/11/18 04:39:50;;;;;;;60.50;28.83;;;;;;;9.07;91.10;98737.00;3136226;28;20053;-75
2022/11/18 04:41:54;;;;;;;66.28;29.65;;;;;;;8.99;91.11;98721.00;3135694;28;20261;-74
2022/11/18 04:43:14;;;;;;;60.53;28.83;;;;;;;8.94;91.36;98723.88;3136021;28;20130;-74
2022/11/18 04:44:46;;;;;;;59.28;29.45;;;;;;;8.95;91.34;98727.31;3135789;28;20456;-74
2022/11/18 04:46:17;;;;;;;67.43;31.80;;;;;;;8.93;91.32;98723.94;3136510;28;20524;-75
2022/11/18 04:47:49;;;;;;;71.80;29.67;;;;;;;8.95;91.37;98732.50;3136600;28;20070;-73
2022/11/18 04:49:21;;;;;;;72.20;30.33;;;;;;;8.96;91.25;98734.16;3136628;28;20056;-73
2022/11/18 04:50:52;;;;;;;77.65;31.63;;;;;;;8.96;91.21;98731.56;3136810;28;20137;-74
2022/11/18 04:52:24;;;;;;;69.60;29.98;;;;;;;8.96;91.49;98729.84;3136446;28;20056;-73
2022/11/18 04:53:57;;;;;;;60.65;28.98;;;;;;;8.96;91.34;98731.56;3136573;28;20087;-73
2022/11/18 04:55:29;;;;;;;73.97;31.38;;;;;;;8.94;91.47;98738.63;3136746;28;20087;-74
2022/11/18 04:57:01;;;;;;;64.65;30.67;;;;;;;8.93;91.44;98732.56;3136582;28;20466;-73
2022/11/18 04:58:33;;;;;;;56.65;28.70;;;;;;;8.78;91.37;98707.47;3136163;28;20505;-74
2022/11/18 05:00:06;;;;;;;71.77;29.47;;;;;;;8.87;91.57;98728.56;3135943;28;20136;-75
2022/11/18 05:01:37;;;;;;;69.43;28.95;;;;;;;8.86;91.50;98726.88;3136749;28;20310;-74
2022/11/18 05:03:09;;;;;;;69.15;30.02;;;;;;;8.82;90.96;98719.38;3137551;28;20555;-75
2022/11/18 05:04:42;;;;;;;67.15;29.02;;;;;;;8.84;90.78;98727.88;3137464;28;20490;-75
2022/11/18 05:06:13;;;;;;;70.70;29.92;;;;;;;8.79;90.96;98722.97;3137593;28;20057;-74
2022/11/18 05:07:45;;;;;;;65.43;29.52;;;;;;;8.76;90.81;98725.72;3136576;28;20268;-75
2022/11/18 05:09:19;;;;;;;65.22;29.85;;;;;;;8.74;90.85;98722.38;3136046;28;20763;-74
2022/11/18 05:10:50;;;;;;;71.10;32.55;;;;;;;8.72;90.65;98728.56;3137240;28;20335;-75
2022/11/18 05:14:12;;;;;;;66.72;30.83;;;;;;;8.70;91.10;98715.69;3135371;28;20052;-74
2022/11/18 05:15:44;;;;;;;71.22;31.45;;;;;;;8.73;90.96;98715.50;3136611;28;20494;-74
2022/11/18 05:17:16;;;;;;;69.45;30.38;;;;;;;8.73;91.13;98710.31;3133548;28;20238;-74
2022/11/18 05:18:47;;;;;;;71.25;30.50;;;;;;;8.74;91.46;98711.16;3135445;28;20869;-74
2022/11/18 05:20:19;;;;;;;61.30;30.63;;;;;;;8.72;91.19;98716.41;3135738;28;20084;-74
2022/11/18 05:21:50;;;;;;;71.45;30.77;;;;;;;8.72;91.52;98711.22;3137126;28;20092;-74
2022/11/18 05:23:22;;;;;;;72.00;30.23;;;;;;;8.59;91.23;98685.13;3136144;28;20079;-74
2022/11/18 05:24:55;;;;;;;69.95;29.33;;;;;;;8.75;91.47;98713.66;3135070;28;20552;-74
2022/11/18 05:26:26;;;;;;;86.88;28.98;;;;;;;8.75;91.62;98723.19;3136574;28;20520;-74
2022/11/18 05:27:58;;;;;;;67.97;29.40;;;;;;;8.73;91.48;98725.06;3137058;28;20070;-73
2022/11/18 05:29:29;;;;;;;73.00;29.55;;;;;;;8.74;91.61;98721.53;3137182;28;20213;-74
2022/11/18 05:31:07;;;;;;;66.20;28.45;;;;;;;8.74;91.33;98717.19;3135819;28;20941;-74
2022/11/18 05:32:39;;;;;;;62.22;29.73;;;;;;;8.74;91.70;98721.53;3135480;28;21437;-74
2022/11/18 05:34:11;;;;;;;62.95;29.88;;;;;;;8.75;91.80;98724.03;3135802;28;20129;-74
2022/11/18 05:35:43;;;;;;;66.35;30.17;;;;;;;8.74;91.92;98714.59;3135907;28;20537;-74
2022/11/18 05:37:15;;;;;;;55.28;29.58;;;;;;;8.66;91.66;98704.59;3136492;28;20143;-74
2022/11/18 05:38:46;;;;;;;67.38;29.50;;;;;;;8.79;91.71;98725.56;3136146;28;20048;-75
2022/11/18 05:40:19;;;;;;;75.38;29.40;;;;;;;8.82;92.15;98729.75;3135411;28;20446;-74
2022/11/18 05:43:40;;;;;;;62.70;29.88;;;;;;;8.82;91.92;98735.78;3136144;28;20201;-74
2022/11/18 05:45:11;;;;;;;65.28;28.45;;;;;;;8.83;91.95;98732.25;3138107;28;20055;-74
2022/11/18 05:46:43;;;;;;;68.60;28.48;;;;;;;8.84;92.08;98733.94;3144818;28;20090;-74
2022/11/18 05:48:15;;;;;;;71.13;29.90;;;;;;;8.86;92.07;98736.44;3145610;28;20052;-74
2022/11/18 05:49:47;;;;;;;94.15;32.15;;;;;;;8.86;92.01;98733.84;3145196;28;20052;-73
2022/11/18 05:51:18;;;;;;;61.35;27.63;;;;;;;8.86;92.40;98741.63;3145436;28;20158;-74
2022/11/18 05:52:49;;;;;;;70.53;30.02;;;;;;;8.86;92.45;98745.06;3145412;28;20045;-74
2022/11/18 05:54:21;;;;;;;64.70;31.27;;;;;;;8.87;92.53;98749.34;3141025;28;20126;-72
2022/11/18 05:56:00;;;;;;;72.22;29.40;;;;;;;8.87;92.59;98738.09;3134372;28;20048;-75
2022/11/18 05:57:32;;;;;;;77.07;29.55;;;;;;;8.86;92.52;98741.63;3138186;28;20110;-72
2022/11/18 05:59:04;;;;;;;76.43;29.52;;;;;;;8.88;92.46;98739.78;3138121;28;20048;-71
2022/11/18 06:00:36;;;;;;;84.47;31.55;;;;;;;8.91;92.68;98749.19;3133035;28;20045;-73
2022/11/18 06:02:14;;;;;;;80.85;31.80;;;;;;;8.91;92.78;98747.41;3144104;28;20126;-73
2022/11/18 06:03:46;;;;;;;70.13;30.80;;;;;;;8.90;92.85;98745.72;3145452;28;20103;-74
2022/11/18 06:05:20;;;;;;;77.72;31.10;;;;;;;8.92;93.09;98746.47;3145482;28;20045;-76
2022/11/18 06:06:57;;;;;;;68.97;29.70;;;;;;;8.91;92.85;98746.59;3143053;28;20055;-74
2022/11/18 06:08:32;;;;;;;65.82;29.38;;;;;;;8.94;92.84;98747.25;3140881;28;20380;-75
2022/11/18 06:10:05;;;;;;;68.65;32.22;;;;;;;8.88;92.89;98737.19;3145040;28;20059;-74
2022/11/18 06:11:42;;;;;;;73.75;32.88;;;;;;;8.94;92.71;98754.19;3145235;28;20052;-75
2022/11/18 06:13:19;;;;;;;64.50;30.63;;;;;;;8.94;92.56;98756.81;3136393;28;20056;-75
2022/11/18 06:14:54;;;;;;;68.90;29.95;;;;;;;8.95;92.52;98761.06;3140486;28;20524;-69
2022/11/18 06:16:29;;;;;;;74.25;30.60;;;;;;;8.87;92.54;98757.13;3144988;28;20102;-70
2022/11/18 06:18:06;;;;;;;63.55;29.20;;;;;;;8.94;92.53;98764.59;3144559;28;20044;-67
2022/11/18 06:19:38;;;;;;;161.40;75.25;;;;;;;8.77;92.22;98731.75;3134530;28;20049;-66
2022/11/18 06:21:10;;;;;;;97.53;44.38;;;;;;;8.91;92.46;98754.38;3138772;28;20110;-66
2022/11/18 06:22:42;;;;;;;114.38;52.75;;;;;;;8.89;92.65;98755.28;3144983;28;20062;-70
2022/11/18 06:24:14;;;;;;;129.02;67.07;;;;;;;8.90;92.97;98758.69;3136450;28;20049;-70
2022/11/18 06:25:47;;;;;;;211.95;106.32;;;;;;;8.93;93.28;98755.09;3138232;28;20048;-70
2022/11/18 06:27:21;;;;;;;215.75;104.40;;;;;;;8.94;93.28;98743.81;3145094;28;20101;-69
2022/11/18 06:28:53;;;;;;;163.63;79.05;;;;;;;8.95;93.22;98748.91;3146432;28;20135;-68
2022/11/18 06:30:24;;;;;;;72.82;32.40;;;;;;;8.98;93.15;98745.31;3146556;28;20058;-69
2022/11/18 06:31:56;;;;;;;211.73;110.30;;;;;;;8.99;93.12;98746.97;3134782;28;20493;-65
2022/11/18 06:33:28;;;;;;;240.68;115.00;;;;;;;9.00;93.22;98746.91;3141869;28;20056;-73
2022/11/18 06:35:00;;;;;;;149.55;69.93;;;;;;;8.98;93.26;98738.34;3145133;28;20197;-71
2022/11/18 06:36:32;;;;;;;82.55;38.15;;;;;;;9.05;93.55;98744.03;3144903;28;20157;-74
2022/11/18 06:38:04;;;;;;;147.43;68.05;;;;;;;9.06;93.48;98745.72;3145295;28;20125;-74
2022/11/18 06:39:37;;;;;;;146.57;75.97;;;;;;;9.01;93.26;98735.59;3145376;28;20056;-72
2022/11/18 06:41:09;;;;;;;83.72;34.97;;;;;;;9.09;93.33;98745.56;3145176;28;20044;-73
2022/11/18 06:44:32;;;;;;;77.72;27.92;;;;;;;9.10;93.17;98747.22;3143592;28;20410;-69
2022/11/18 06:47:57;;;;;;;76.80;28.00;;;;;;;9.07;93.41;98737.00;3143843;28;20068;-69
2022/11/18 06:49:28;;;;;;;64.93;27.77;;;;;;;8.99;93.26;98721.00;3140594;28;20057;-67
2022/11/18 06:50:59;;;;;;;64.78;28.85;;;;;;;9.15;93.25;98744.38;3142651;28;20060;-69
2022/11/18 06:52:32;;;;;;;69.82;30.48;;;;;;;9.16;93.07;98744.28;3144303;28;20117;-67
2022/11/18 06:54:04;;;;;;;87.43;30.63;;;;;;;9.19;92.99;98738.06;3139364;28;20379;-65
2022/11/18 06:55:36;;;;;;;66.78;28.48;;;;;;;9.19;93.27;98738.91;3142156;28;20107;-68
2022/11/18 06:57:07;;;;;;;69.57;29.17;;;;;;;9.22;93.42;98753.47;3144318;28;20055;-68
2022/11/18 06:58:40;;;;;;;67.60;29.75;;;;;;;9.24;93.28;98747.28;3144316;28;20052;-68
2022/11/18 07:00:13;;;;;;;81.90;29.27;;;;;;;9.31;93.45;98743.41;3144150;28;20505;-69
2022/11/18 07:01:45;;;;;;;67.95;29.50;;;;;;;9.33;93.40;98746.75;3142831;28;20051;-66
2022/11/18 07:03:17;;;;;;;89.15;32.50;;;;;;;9.37;93.25;98744.00;3144140;28;20052;-68
2022/11/18 07:04:49;;;;;;;85.05;31.17;;;;;;;9.34;93.13;98737.19;3144095;28;20529;-67
2022/11/18 07:06:23;;;;;;;75.43;32.97;;;;;;;9.38;93.58;98735.28;3144029;28;20114;-67
2022/11/18 07:07:54;;;;;;;80.70;31.95;;;;;;;9.41;93.70;98743.75;3143800;28;20124;-67
2022/11/18 07:09:26;;;;;;;80.65;32.50;;;;;;;9.38;93.42;98730.09;3144820;28;20049;-67
2022/11/18 07:10:58;;;;;;;84.88;31.55;;;;;;;9.41;93.28;98732.50;3142666;28;20165;-65
2022/11/18 07:12:30;;;;;;;78.68;31.77;;;;;;;9.46;93.43;98735.66;3144325;28;20056;-67
2022/11/18 07:14:03;;;;;;;71.18;32.50;;;;;;;9.47;93.31;98732.16;3143386;28;20048;-67
2022/11/18 07:15:35;;;;;;;67.85;31.60;;;;;;;9.48;93.21;98723.44;3144939;28;20092;-66
2022/11/18 07:17:07;;;;;;;75.95;31.52;;;;;;;9.50;93.25;98719.00;3144147;28;20067;-68
2022/11/18 07:18:40;;;;;;;68.45;30.95;;;;;;;9.53;93.69;98719.63;3144273;28;20056;-69
2022/11/18 07:20:12;;;;;;;88.78;31.67;;;;;;;9.54;93.17;98718.69;3140553;28;20418;-66
2022/11/18 07:21:44;;;;;;;72.53;31.90;;;;;;;9.55;93.29;98722.13;3134188;28;20052;-68
2022/11/18 07:23:15;;;;;;;73.30;30.27;;;;;;;9.54;93.70;98723.06;3143163;28;20110;-67
2022/11/18 07:24:47;;;;;;;76.05;32.10;;;;;;;9.54;93.36;98715.28;3143693;28;20503;-70
2022/11/18 07:26:19;;;;;;;78.18;32.55;;;;;;;9.61;93.33;98718.34;3143628;28;20060;-71
2022/11/18 07:27:51;;;;;;;87.25;30.92;;;;;;;9.59;93.17;98715.84;3142471;28;20045;-69
2022/11/18 07:29:24;;;;;;;91.53;33.28;;;;;;;9.59;93.08;98731.44;3143539;28;20052;-67
2022/11/18 07:31:00;;;;;;;71.30;31.00;;;;;;;9.55;93.10;98729.94;3144107;28;20534;-68
2022/11/18 07:32:33;;;;;;;91.90;33.95;;;;;;;9.55;93.31;98740.31;3144124;28;20052;-72